Time;durP1;ratioP1;P1;durP2;ratioP2;P2;SDS_P1;SDS_P2;PMS_P1;PMS_P2;Temp;Humidity;BMP_temperature;BMP_pressure;BME280_temperature;BME280_humidity;BME280_pressure;Samples;Min_cycle;Max_cycle;Signal;HPM_P1;HPM_P2
2022/11/14 00:06:58;;;;;;;14.70;6.35;;;;;;;;;;21006676;28;20478;-65
2022/11/14 00:17:00;;;;;;;11.02;6.38;;;;;;;;;;21004846;28;20497;-64
2022/11/14 00:27:02;;;;;;;12.68;7.03;;;;;;;;;;21004405;28;20472;-66
2022/11/14 00:37:04;;;;;;;15.43;6.93;;;;;;;;;;21002325;28;20060;-67
2022/11/14 00:47:06;;;;;;;12.90;6.63;;;;;;;;;;21002720;28;20059;-67
2022/11/14 00:57:08;;;;;;;15.45;8.48;;;;;;;;;;21001856;28;20135;-67
2022/11/14 01:07:09;;;;;;;13.68;8.18;;;;;;;;;;21000939;28;20143;-67
2022/11/14 01:17:11;;;;;;;11.73;6.72;;;;;;;;;;20999502;28;20052;-66
2022/11/14 01:27:13;;;;;;;13.68;7.55;;;;;;;;;;21000997;28;20432;-67
2022/11/14 01:37:15;;;;;;;17.48;8.80;;;;;;;;;;20998785;28;20059;-67
2022/11/14 01:47:22;;;;;;;17.58;9.82;;;;;;;;;;20997400;28;20418;-67
2022/11/14 01:57:28;;;;;;;13.52;6.55;;;;;;;;;;20998598;28;20470;-67
2022/11/14 02:07:32;;;;;;;10.95;6.32;;;;;;;;;;20996703;28;20401;-67
2022/11/14 02:17:34;;;;;;;13.75;6.30;;;;;;;;;;20996417;28;20139;-67
2022/11/14 02:27:39;;;;;;;9.25;6.00;;;;;;;;;;20995751;28;20492;-67
2022/11/14 02:37:41;;;;;;;12.35;6.00;;;;;;;;;;20995397;28;20140;-67
2022/11/14 02:47:46;;;;;;;11.38;6.38;;;;;;;;;;20996206;28;20401;-65
2022/11/14 02:57:48;;;;;;;12.52;6.50;;;;;;;;;;20994967;28;20489;-67
2022/11/14 03:07:52;;;;;;;9.65;6.22;;;;;;;;;;20994238;28;20055;-66
2022/11/14 03:17:55;;;;;;;11.70;6.07;;;;;;;;;;21002281;28;20052;-66
2022/11/14 03:27:59;;;;;;;12.13;6.75;;;;;;;;;;21008640;28;20048;-66
2022/11/14 03:38:02;;;;;;;10.68;5.82;;;;;;;;;;21007860;28;20052;-67
2022/11/14 03:48:06;;;;;;;12.02;5.53;;;;;;;;;;21007011;28;20055;-66
2022/11/14 03:58:09;;;;;;;10.70;6.53;;;;;;;;;;21007148;28;20052;-67
2022/11/14 04:08:11;;;;;;;12.85;5.68;;;;;;;;;;21005540;28;20073;-66
2022/11/14 04:18:13;;;;;;;11.32;6.53;;;;;;;;;;21005084;28;20105;-68
2022/11/14 04:28:16;;;;;;;14.30;6.75;;;;;;;;;;21004549;28;20500;-67
2022/11/14 04:38:19;;;;;;;13.10;5.90;;;;;;;;;;21003471;28;20083;-66
2022/11/14 04:48:28;;;;;;;11.70;6.20;;;;;;;;;;21003039;28;20052;-66
2022/11/14 04:58:30;;;;;;;16.42;8.07;;;;;;;;;;21001626;28;20523;-67
2022/11/14 05:08:32;;;;;;;18.05;10.27;;;;;;;;;;21001353;28;20487;-66
2022/11/14 05:18:34;;;;;;;26.27;12.35;;;;;;;;;;21000017;28;20048;-67
2022/11/14 05:28:37;;;;;;;25.08;11.10;;;;;;;;;;20998453;28;20048;-65
2022/11/14 05:38:39;;;;;;;19.25;11.80;;;;;;;;;;20998768;28;20076;-68
2022/11/14 05:48:42;;;;;;;21.95;12.55;;;;;;;;;;20997311;28;20057;-67
2022/11/14 05:58:44;;;;;;;23.13;12.50;;;;;;;;;;20997158;28;20131;-66
2022/11/14 06:08:46;;;;;;;17.70;10.20;;;;;;;;;;20996895;28;20058;-66
2022/11/14 06:18:48;;;;;;;14.90;9.27;;;;;;;;;;20998043;28;20440;-66
2022/11/14 06:28:51;;;;;;;18.20;9.35;;;;;;;;;;20995705;28;20053;-67
2022/11/14 06:38:53;;;;;;;20.00;10.00;;;;;;;;;;20995480;28;20076;-66
2022/11/14 06:48:54;;;;;;;24.15;10.45;;;;;;;;;;20997169;28;20396;-66
2022/11/14 06:58:56;;;;;;;22.77;10.93;;;;;;;;;;21011542;28;20461;-67
2022/11/14 07:08:58;;;;;;;20.35;11.30;;;;;;;;;;21011331;28;20530;-64
2022/11/14 07:19:01;;;;;;;19.33;10.23;;;;;;;;;;21009035;28;20093;-65
2022/11/14 07:29:03;;;;;;;24.85;10.73;;;;;;;;;;21007209;28;20435;-64
2022/11/14 07:39:05;;;;;;;17.48;10.23;;;;;;;;;;21007755;28;20098;-65
2022/11/14 07:49:07;;;;;;;20.13;11.10;;;;;;;;;;21006781;28;20501;-63
2022/11/14 07:59:09;;;;;;;19.90;10.18;;;;;;;;;;21006821;28;20135;-63
2022/11/14 08:09:11;;;;;;;23.60;11.75;;;;;;;;;;21004654;28;20063;-66
2022/11/14 08:19:15;;;;;;;19.92;10.60;;;;;;;;;;21005795;28;20045;-65
2022/11/14 08:29:17;;;;;;;21.38;9.88;;;;;;;;;;21004984;28;20056;-65
2022/11/14 08:39:19;;;;;;;22.13;9.68;;;;;;;;;;21003416;28;20045;-65
2022/11/14 08:49:21;;;;;;;21.25;8.63;;;;;;;;;;21001824;28;20150;-65
2022/11/14 08:59:23;;;;;;;22.13;11.35;;;;;;;;;;21000892;28;20072;-63
2022/11/14 09:09:25;;;;;;;15.38;9.07;;;;;;;;;;21000646;28;20101;-63
2022/11/14 09:19:27;;;;;;;21.38;8.52;;;;;;;;;;20999447;28;20055;-62
2022/11/14 09:29:29;;;;;;;15.50;8.52;;;;;;;;;;20999144;28;20139;-61
2022/11/14 09:39:31;;;;;;;16.35;8.30;;;;;;;;;;20997803;28;20052;-63
2022/11/14 09:49:39;;;;;;;16.80;7.78;;;;;;;;;;20997166;28;20061;-62
2022/11/14 09:59:41;;;;;;;19.83;9.07;;;;;;;;;;20995396;28;20131;-63
2022/11/14 10:09:44;;;;;;;13.48;8.40;;;;;;;;;;20996715;28;20048;-62
2022/11/14 10:20:07;;;;;;;12.73;6.38;;;;;;;;;;20997898;28;20477;-63
2022/11/14 10:30:12;;;;;;;14.55;8.40;;;;;;;;;;20994432;28;20055;-65
2022/11/14 10:40:25;;;;;;;12.93;6.47;;;;;;;;;;20996068;28;20053;-66
2022/11/14 10:50:40;;;;;;;15.88;6.53;;;;;;;;;;20994844;28;20056;-65
2022/11/14 11:00:42;;;;;;;10.70;4.43;;;;;;;;;;20994994;28;20048;-66
2022/11/14 11:21:10;;;;;;;13.40;3.95;;;;;;;;;;20994181;28;20128;-65
2022/11/14 11:31:12;;;;;;;8.20;3.63;;;;;;;;;;20993537;28;20052;-65
2022/11/14 11:41:14;;;;;;;9.95;3.63;;;;;;;;;;21004756;28;20465;-65
2022/11/14 11:51:18;;;;;;;6.57;3.45;;;;;;;;;;21006950;28;20589;-65
2022/11/14 12:01:20;;;;;;;7.70;3.78;;;;;;;;;;21005300;28;20131;-67
2022/11/14 12:11:25;;;;;;;11.55;5.00;;;;;;;;;;21004464;28;20049;-66
2022/11/14 12:21:45;;;;;;;9.15;3.50;;;;;;;;;;21003109;28;20048;-66
2022/11/14 12:31:48;;;;;;;6.13;2.97;;;;;;;;;;21004923;28;20071;-67
2022/11/14 12:41:50;;;;;;;8.30;3.72;;;;;;;;;;21005563;28;20063;-65
2022/11/14 12:51:52;;;;;;;6.53;2.72;;;;;;;;;;21001642;28;20090;-68
2022/11/14 13:02:00;;;;;;;4.15;1.50;;;;;;;;;;21002376;28;20083;-65
2022/11/14 13:22:41;;;;;;;4.97;1.30;;;;;;;;;;21000520;28;20044;-66
2022/11/14 13:32:43;;;;;;;2.83;1.27;;;;;;;;;;20999199;28;20481;-64
2022/11/14 13:42:51;;;;;;;5.88;1.70;;;;;;;;;;20998119;28;20048;-66
2022/11/14 13:52:52;;;;;;;3.90;1.50;;;;;;;;;;20996994;28;20410;-65
2022/11/14 14:03:01;;;;;;;4.15;2.60;;;;;;;;;;20998117;28;20044;-64
2022/11/14 14:13:07;;;;;;;4.25;1.13;;;;;;;;;;20997541;28;20495;-64
2022/11/14 14:23:15;;;;;;;2.97;1.17;;;;;;;;;;20996890;28;20048;-65
2022/11/14 14:33:17;;;;;;;4.47;2.10;;;;;;;;;;20995385;28;20132;-65
2022/11/14 14:43:30;;;;;;;2.65;1.33;;;;;;;;;;20995437;28;20049;-65
2022/11/14 14:53:35;;;;;;;4.10;1.30;;;;;;;;;;20994209;28;20056;-64
2022/11/14 15:03:57;;;;;;;7.63;2.05;;;;;;;;;;20996179;28;20481;-63
2022/11/14 15:14:01;;;;;;;5.80;1.65;;;;;;;;;;21002790;28;20049;-65
2022/11/14 15:24:12;;;;;;;2.50;1.27;;;;;;;;;;21009913;28;20102;-64
2022/11/14 15:34:23;;;;;;;10.48;2.00;;;;;;;;;;21008796;28;20059;-65
2022/11/14 15:44:32;;;;;;;4.80;2.05;;;;;;;;;;21007749;28;20049;-68
2022/11/14 15:54:36;;;;;;;9.57;1.83;;;;;;;;;;21007811;28;20060;-65
2022/11/14 16:04:39;;;;;;;3.63;1.65;;;;;;;;;;21007036;28;20045;-70
2022/11/14 16:14:41;;;;;;;2.80;1.38;;;;;;;;;;21004243;28;20147;-69
2022/11/14 16:24:43;;;;;;;3.33;1.50;;;;;;;;;;21004179;28;20052;-67
2022/11/14 16:34:45;;;;;;;4.00;1.80;;;;;;;;;;21003387;28;20090;-64
2022/11/14 16:44:47;;;;;;;4.07;1.45;;;;;;;;;;21003377;28;20040;-63
2022/11/14 16:54:49;;;;;;;3.28;1.30;;;;;;;;;;21002190;28;20056;-64
2022/11/14 17:04:51;;;;;;;3.88;1.70;;;;;;;;;;21001144;28;20135;-65
2022/11/14 17:14:53;;;;;;;5.15;1.60;;;;;;;;;;21000889;28;20489;-68
2022/11/14 17:24:55;;;;;;;4.13;1.40;;;;;;;;;;20999656;28;20049;-66
2022/11/14 17:34:57;;;;;;;3.95;1.33;;;;;;;;;;20998925;28;20076;-68
2022/11/14 17:44:59;;;;;;;5.85;2.78;;;;;;;;;;20997152;28;20041;-69
2022/11/14 17:55:01;;;;;;;2.83;1.60;;;;;;;;;;20997430;28;20056;-69
2022/11/14 18:05:04;;;;;;;3.63;1.63;;;;;;;;;;20996767;28;20105;-68
2022/11/14 18:15:06;;;;;;;4.50;1.70;;;;;;;;;;20995269;28;20086;-67
2022/11/14 18:25:08;;;;;;;3.10;2.03;;;;;;;;;;20995408;28;20045;-68
2022/11/14 18:35:10;;;;;;;5.78;1.98;;;;;;;;;;20995002;28;20417;-69
2022/11/14 18:45:12;;;;;;;3.75;1.92;;;;;;;;;;20997470;28;20400;-65
2022/11/14 18:55:14;;;;;;;2.45;1.60;;;;;;;;;;21011549;28;20055;-64
2022/11/14 19:05:16;;;;;;;5.53;2.10;;;;;;;;;;21010168;28;20055;-67
2022/11/14 19:15:18;;;;;;;4.28;2.55;;;;;;;;;;21009532;28;20135;-66
2022/11/14 19:25:20;;;;;;;4.55;2.13;;;;;;;;;;21009829;28;20059;-63
2022/11/14 19:35:22;;;;;;;6.78;3.47;;;;;;;;;;21008086;28;20097;-65
2022/11/14 19:45:24;;;;;;;6.45;3.65;;;;;;;;;;21009217;28;20049;-67
2022/11/14 19:55:26;;;;;;;7.07;4.85;;;;;;;;;;21006545;28;20084;-62
2022/11/14 20:05:28;;;;;;;6.97;3.58;;;;;;;;;;21005685;28;20054;-64
2022/11/14 20:15:30;;;;;;;7.30;3.78;;;;;;;;;;21004005;28;20106;-65
2022/11/14 20:25:34;;;;;;;7.70;4.00;;;;;;;;;;21005713;28;20119;-64
2022/11/14 20:35:36;;;;;;;4.35;2.90;;;;;;;;;;21003591;28;20125;-67
2022/11/14 20:45:38;;;;;;;4.47;2.10;;;;;;;;;;21003382;28;20045;-67
2022/11/14 20:55:40;;;;;;;2.65;1.70;;;;;;;;;;21002633;28;20049;-65
2022/11/14 21:05:42;;;;;;;2.50;1.15;;;;;;;;;;21001492;28;20500;-63
2022/11/14 21:15:44;;;;;;;1.10;0.80;;;;;;;;;;20999750;28;20052;-65
2022/11/14 21:25:46;;;;;;;1.65;0.90;;;;;;;;;;20999400;28;20045;-64
2022/11/14 21:35:48;;;;;;;1.90;0.95;;;;;;;;;;20999184;28;20055;-68
2022/11/14 21:45:54;;;;;;;1.23;0.80;;;;;;;;;;20998951;28;20052;-64
2022/11/14 21:55:56;;;;;;;1.75;0.73;;;;;;;;;;20998091;28;20495;-67
2022/11/14 22:05:58;;;;;;;2.80;0.93;;;;;;;;;;20998510;28;20415;-65
2022/11/14 22:16:07;;;;;;;1.05;0.75;;;;;;;;;;20995942;28;20135;-64
2022/11/14 22:26:11;;;;;;;2.03;0.82;;;;;;;;;;20995633;28;20056;-67
2022/11/14 22:36:14;;;;;;;1.60;1.02;;;;;;;;;;20996309;28;20056;-63
2022/11/14 22:46:18;;;;;;;2.08;1.30;;;;;;;;;;20994812;28;20044;-67
2022/11/14 22:56:22;;;;;;;1.13;0.70;;;;;;;;;;20993582;28;20052;-65
2022/11/14 23:06:24;;;;;;;1.23;0.80;;;;;;;;;;20995368;28;20087;-69
2022/11/14 23:16:27;;;;;;;2.38;0.88;;;;;;;;;;20994796;28;20386;-68
2022/11/14 23:26:30;;;;;;;1.70;0.82;;;;;;;;;;20994864;28;20499;-65
2022/11/14 23:36:32;;;;;;;1.58;0.93;;;;;;;;;;21004628;28;20480;-68
2022/11/14 23:46:34;;;;;;;1.25;0.75;;;;;;;;;;21008089;28;20052;-66
2022/11/14 23:56:36;;;;;;;1.42;0.60;;;;;;;;;;21007955;28;20094;-68
